Terminal Aerodrome Forecast
Issued by NWS

Home | Current Version | Previous Version | Graphics & Text | Print | Product List | Glossary On
Versions: 1 2 3 4 5 6 7 8 9 10 11 12 13 14 15 16 17 18 19 20 21 22
000
FTUS43 KICT 192009 AAB
TAFRSL
TAF AMD
KRSL 192009Z 1920/2018 20011KT P6SM SCT015
     FM200400 21008KT 3SM BR BKN007
     FM201600 21010KT 6SM BR BKN012=

USA.gov is the U.S. government's official web portal to all federal, state and local government web resources and services.